Mount Zion, Indiana
Current Conditions -  °F | °C
As of 7:35 PM on Monday 24 Nov 2014 (Local Time) from KHHG Reporting Station
Overcast Overcast  
Wind Chill: 23°   Ceiling: 2500
Heat Index: 34°   Visibility: 10mi
Dew Point: 27°   Wind: 17mph
Humidity: 75%   Direction: 250°WSW
Pressure: 29.74"   Gusts: 32mph
Location:  40.6897°N, 85.3916°W
Report Text: KHHG 250035Z AUTO 25015G28KT 10SM OVC025 01/M03 A2974 RMK AO2 T00101030
Loading
Personal Weather Stations






























Interactive Weather Map New forecast layout! Learn more

10-Day Weather Forecast

Advertisements
Track Severe Weather on mobile